createdAt,value
2023-01-19T00:00:31.799Z,13.73
2023-01-19T00:03:35.312Z,14.33
2023-01-19T00:06:37.644Z,12.80
2023-01-19T00:09:40.260Z,13.68
2023-01-19T00:12:42.730Z,11.95
2023-01-19T00:15:45.882Z,12.70
2023-01-19T00:18:50.443Z,12.67
2023-01-19T00:21:53.159Z,12.02
2023-01-19T00:24:55.623Z,11.95
2023-01-19T00:28:00.603Z,11.30
2023-01-19T00:31:04.191Z,11.50
2023-01-19T00:34:07.646Z,11.50
2023-01-19T00:37:10.352Z,11.48
2023-01-19T00:40:14.169Z,10.23
2023-01-19T00:43:16.618Z,10.77
2023-01-19T00:46:19.384Z,9.85
2023-01-19T00:49:21.857Z,9.00
2023-01-19T00:52:24.517Z,10.27
2023-01-19T00:55:28.701Z,10.15
2023-01-19T00:58:31.377Z,9.02
2023-01-19T01:01:44.979Z,9.30
2023-01-19T01:04:54.777Z,9.07
2023-01-19T01:07:57.440Z,8.55
2023-01-19T01:11:00.799Z,8.57
2023-01-19T01:14:03.117Z,8.00
2023-01-19T01:17:06.164Z,8.00
2023-01-19T01:20:09.272Z,7.13
2023-01-19T01:23:12.460Z,7.20
2023-01-19T01:26:14.889Z,6.90
2023-01-19T01:29:17.511Z,5.75
2023-01-19T01:32:19.896Z,5.32
2023-01-19T01:35:22.550Z,5.53
2023-01-19T01:38:24.951Z,5.32
2023-01-19T01:41:27.792Z,4.12
2023-01-19T01:44:51.464Z,3.80
2023-01-19T01:47:57.802Z,4.00
2023-01-19T01:51:27.288Z,3.70
2023-01-19T01:54:33.582Z,3.67
2023-01-19T01:57:39.491Z,3.33
2023-01-19T02:01:01.498Z,2.85
2023-01-19T02:04:04.311Z,3.17
2023-01-19T02:07:25.471Z,3.17
2023-01-19T02:10:47.028Z,3.03
2023-01-19T02:13:50.790Z,3.05
2023-01-19T02:16:53.663Z,3.60
2023-01-19T02:19:56.304Z,3.08
2023-01-19T02:23:05.145Z,2.50
2023-01-19T02:26:10.175Z,2.85
2023-01-19T02:29:19.474Z,2.62
2023-01-19T02:32:21.956Z,2.33
2023-01-19T02:35:25.382Z,2.00
2023-01-19T02:38:29.068Z,1.80
2023-01-19T02:41:38.910Z,1.87
2023-01-19T02:44:45.488Z,1.73
2023-01-19T02:47:53.208Z,1.50
2023-01-19T02:51:04.445Z,1.90
2023-01-19T02:54:13.233Z,1.90
2023-01-19T02:57:49.989Z,1.50
2023-01-19T03:01:09.843Z,1.30
2023-01-19T03:04:31.599Z,1.62
2023-01-19T03:07:59.178Z,1.55
2023-01-19T03:11:11.178Z,1.20
2023-01-19T03:14:21.204Z,1.30
2023-01-19T03:17:24.944Z,1.23
2023-01-19T03:20:29.058Z,1.20
2023-01-19T03:23:34.782Z,1.33
2023-01-19T03:26:44.107Z,0.90
2023-01-19T03:29:54.153Z,1.30
2023-01-19T03:33:05.189Z,1.12
2023-01-19T03:36:15.428Z,1.08
2023-01-19T03:39:24.555Z,1.10
2023-01-19T03:42:28.485Z,0.90
2023-01-19T03:45:34.299Z,1.12
2023-01-19T03:48:37.859Z,0.68
2023-01-19T03:51:40.633Z,0.93
2023-01-19T03:54:43.553Z,0.70
2023-01-19T03:57:46.156Z,0.90
2023-01-19T04:00:48.637Z,1.08
2023-01-19T04:03:52.850Z,1.12
2023-01-19T04:06:55.271Z,0.82
2023-01-19T04:09:57.864Z,1.20
2023-01-19T04:13:02.258Z,1.00
2023-01-19T04:16:05.849Z,0.98
2023-01-19T04:19:09.816Z,0.70
2023-01-19T04:22:13.195Z,0.98
2023-01-19T04:25:15.916Z,0.60
2023-01-19T04:28:18.562Z,0.40
2023-01-19T04:31:21.053Z,0.50
2023-01-19T04:34:23.764Z,0.60
2023-01-19T04:37:26.168Z,0.50
2023-01-19T04:40:28.831Z,0.50
2023-01-19T04:43:31.388Z,0.50
2023-01-19T04:46:34.096Z,0.50
2023-01-19T04:49:37.786Z,0.50
2023-01-19T04:52:40.514Z,0.40
2023-01-19T04:55:42.878Z,0.73
2023-01-19T04:58:45.629Z,0.50
2023-01-19T05:01:47.988Z,0.82
2023-01-19T05:04:51.024Z,0.45
2023-01-19T05:07:53.338Z,0.60
2023-01-19T05:10:57.600Z,0.70
2023-01-19T05:13:59.986Z,0.50
2023-01-19T05:17:03.291Z,0.43
2023-01-19T05:20:06.529Z,0.50
2023-01-19T05:23:09.169Z,0.50
2023-01-19T05:26:11.824Z,0.50
2023-01-19T05:29:14.790Z,0.60
2023-01-19T05:32:17.275Z,0.65
2023-01-19T05:35:27.762Z,0.50
2023-01-19T05:38:35.954Z,0.82
2023-01-19T05:41:39.152Z,0.50
2023-01-19T05:44:41.828Z,0.40
2023-01-19T05:47:45.006Z,0.70
2023-01-19T05:50:52.820Z,0.50
2023-01-19T05:53:55.679Z,0.32
2023-01-19T05:56:58.288Z,0.60
2023-01-19T06:00:00.966Z,0.87
2023-01-19T06:03:04.160Z,0.52
2023-01-19T06:06:08.521Z,0.50
2023-01-19T06:09:11.381Z,0.47
2023-01-19T06:12:14.246Z,0.57
2023-01-19T06:15:16.683Z,0.40
2023-01-19T06:18:19.406Z,0.57
2023-01-19T06:21:22.768Z,0.77
2023-01-19T06:24:26.024Z,0.80
2023-01-19T06:27:28.610Z,0.90
2023-01-19T06:30:31.491Z,1.10
2023-01-19T06:33:34.181Z,0.70
2023-01-19T06:36:37.241Z,0.93
2023-01-19T06:39:41.116Z,1.05
2023-01-19T06:42:43.794Z,1.00
2023-01-19T06:45:46.625Z,0.80
2023-01-19T06:48:49.348Z,0.90
2023-01-19T06:51:51.769Z,1.42
2023-01-19T06:54:54.642Z,1.20
2023-01-19T06:57:59.967Z,1.55
2023-01-19T07:01:07.675Z,1.43
2023-01-19T07:04:14.015Z,1.58
2023-01-19T07:07:16.954Z,1.85
2023-01-19T07:10:19.438Z,1.95
2023-01-19T07:13:22.273Z,2.12
2023-01-19T07:16:25.635Z,2.57
2023-01-19T07:19:30.077Z,2.95
2023-01-19T07:22:32.708Z,2.78
2023-01-19T07:25:39.583Z,2.83
2023-01-19T07:28:43.455Z,3.30
2023-01-19T07:31:48.970Z,2.87
2023-01-19T07:34:51.586Z,3.20
2023-01-19T07:37:57.055Z,2.67
2023-01-19T07:41:04.699Z,2.85
2023-01-19T07:44:08.763Z,2.47
2023-01-19T07:47:12.729Z,2.30
2023-01-19T07:50:21.466Z,2.55
2023-01-19T07:53:23.885Z,2.70
2023-01-19T07:56:27.965Z,2.50
2023-01-19T07:59:32.404Z,2.60
2023-01-19T08:02:36.080Z,2.10
2023-01-19T08:05:38.871Z,2.72
2023-01-19T08:08:41.607Z,2.62
2023-01-19T08:11:44.398Z,2.28
2023-01-19T08:14:46.731Z,2.80
2023-01-19T08:18:11.667Z,3.43
2023-01-19T08:21:14.064Z,2.47
2023-01-19T08:24:22.832Z,3.70
2023-01-19T08:27:25.473Z,3.60
2023-01-19T08:30:28.482Z,3.03
2023-01-19T08:33:30.906Z,2.77
2023-01-19T08:36:34.050Z,2.95
2023-01-19T08:39:36.514Z,5.57
2023-01-19T08:42:39.305Z,2.97
2023-01-19T08:45:48.820Z,3.05
2023-01-19T08:48:51.635Z,2.53
2023-01-19T08:51:54.111Z,3.60
2023-01-19T08:54:57.053Z,3.37
2023-01-19T08:58:04.337Z,3.17
2023-01-19T09:01:08.777Z,3.55
2023-01-19T09:04:11.324Z,3.77
2023-01-19T09:07:14.129Z,2.70
2023-01-19T09:10:17.949Z,2.55
2023-01-19T09:13:20.887Z,3.30
2023-01-19T09:16:23.364Z,4.28
2023-01-19T09:19:26.256Z,3.60
2023-01-19T09:22:29.816Z,3.62
2023-01-19T09:25:35.404Z,3.12
2023-01-19T09:28:38.076Z,3.08
2023-01-19T09:31:41.147Z,3.87
2023-01-19T09:34:43.951Z,2.97
2023-01-19T09:37:47.592Z,3.10
2023-01-19T09:40:53.653Z,3.10
2023-01-19T09:44:01.041Z,3.42
2023-01-19T09:47:13.145Z,5.60
2023-01-19T09:50:38.298Z,4.23
2023-01-19T09:53:46.690Z,5.60
2023-01-19T09:56:52.392Z,7.70
2023-01-19T09:59:59.866Z,7.05
2023-01-19T10:03:24.170Z,7.43
2023-01-19T10:06:27.504Z,7.77
2023-01-19T10:09:46.571Z,8.57
2023-01-19T10:12:52.413Z,7.72
2023-01-19T10:16:21.312Z,8.70
2023-01-19T10:19:30.498Z,7.75
2023-01-19T10:22:33.380Z,7.67
2023-01-19T10:25:36.323Z,9.48
2023-01-19T10:28:39.931Z,8.57
2023-01-19T10:31:45.971Z,7.28
2023-01-19T10:34:49.938Z,8.02
2023-01-19T10:38:02.779Z,8.13
2023-01-19T10:41:15.736Z,8.02
2023-01-19T10:44:27.893Z,6.60
2023-01-19T10:47:36.414Z,7.35
2023-01-19T10:50:42.385Z,7.85
2023-01-19T10:53:57.098Z,6.70
2023-01-19T10:57:05.371Z,7.55
2023-01-19T11:00:38.552Z,7.43
2023-01-19T11:03:41.678Z,6.47
2023-01-19T11:06:45.188Z,7.47
2023-01-19T11:09:49.507Z,5.73
2023-01-19T11:13:12.908Z,7.65
2023-01-19T11:16:38.891Z,7.95
2023-01-19T11:19:41.556Z,5.80
2023-01-19T11:22:44.333Z,6.53
2023-01-19T11:25:50.214Z,7.87
2023-01-19T11:28:56.059Z,7.43
2023-01-19T11:32:20.593Z,8.20
2023-01-19T11:35:36.388Z,7.20
2023-01-19T11:38:44.073Z,8.02
2023-01-19T11:41:51.117Z,7.83
2023-01-19T11:45:12.615Z,8.82
2023-01-19T11:48:36.663Z,7.90
2023-01-19T11:52:14.673Z,7.12
2023-01-19T11:55:41.920Z,7.65
2023-01-19T11:58:48.262Z,7.73
2023-01-19T12:02:00.724Z,7.97
2023-01-19T12:05:08.680Z,8.23
2023-01-19T12:08:21.045Z,9.48
2023-01-19T12:11:31.669Z,8.98
2023-01-19T12:14:34.009Z,8.20
2023-01-19T12:17:50.329Z,8.15
2023-01-19T12:20:54.769Z,10.00
2023-01-19T12:24:00.147Z,10.10
2023-01-19T12:27:12.861Z,9.15
2023-01-19T12:30:25.445Z,9.17
2023-01-19T12:33:37.542Z,9.07
2023-01-19T12:36:40.750Z,7.95
2023-01-19T12:39:49.113Z,9.25
2023-01-19T12:43:04.852Z,8.45
2023-01-19T12:46:28.981Z,7.50
2023-01-19T12:49:42.974Z,9.40
2023-01-19T12:52:57.158Z,8.10
2023-01-19T12:56:10.134Z,9.38
2023-01-19T12:59:25.749Z,9.00
2023-01-19T13:02:28.685Z,8.03
2023-01-19T13:05:40.140Z,8.65
2023-01-19T13:08:59.447Z,9.02
2023-01-19T13:12:14.227Z,7.53
2023-01-19T13:15:33.702Z,8.35
2023-01-19T13:18:41.713Z,8.50
2023-01-19T13:21:45.768Z,7.45
2023-01-19T13:25:11.278Z,9.48
2023-01-19T13:28:17.056Z,8.82
2023-01-19T13:31:20.106Z,9.52
2023-01-19T13:34:25.313Z,8.73
2023-01-19T13:37:37.247Z,8.57
2023-01-19T13:40:40.731Z,8.30
2023-01-19T13:43:46.589Z,7.00
2023-01-19T13:46:51.691Z,8.35
2023-01-19T13:49:58.325Z,8.47
2023-01-19T13:53:01.599Z,5.40
2023-01-19T13:56:20.923Z,9.65
2023-01-19T13:59:24.005Z,10.15
2023-01-19T14:02:26.620Z,8.20
2023-01-19T14:05:37.917Z,10.30
2023-01-19T14:08:40.658Z,8.77
2023-01-19T14:11:45.795Z,8.98
2023-01-19T14:14:48.456Z,10.27
2023-01-19T14:18:08.725Z,10.93
2023-01-19T14:21:20.688Z,10.43
2023-01-19T14:24:24.290Z,9.43
2023-01-19T14:27:26.669Z,7.87
2023-01-19T14:30:29.454Z,9.93
2023-01-19T14:33:44.635Z,11.80
2023-01-19T14:36:51.772Z,10.80
2023-01-19T14:40:13.279Z,10.48
2023-01-19T14:43:16.700Z,11.55
2023-01-19T14:46:20.683Z,11.50
2023-01-19T14:49:36.723Z,11.95
2023-01-19T14:52:42.428Z,11.70
2023-01-19T14:55:49.941Z,9.45
2023-01-19T14:58:52.681Z,9.57
2023-01-19T15:01:55.638Z,10.40
2023-01-19T15:04:58.120Z,11.50
2023-01-19T15:08:02.941Z,7.70
2023-01-19T15:11:30.953Z,9.40
2023-01-19T15:14:35.481Z,11.25
2023-01-19T15:17:37.884Z,10.93
2023-01-19T15:20:41.560Z,11.18
2023-01-19T15:23:44.013Z,9.30
2023-01-19T15:26:46.897Z,11.55
2023-01-19T15:29:49.392Z,10.38
2023-01-19T15:32:52.161Z,11.15
2023-01-19T15:35:54.654Z,11.75
2023-01-19T15:38:58.808Z,11.83
2023-01-19T15:42:02.468Z,11.48
2023-01-19T15:45:35.782Z,11.80
2023-01-19T15:48:38.238Z,8.93
2023-01-19T15:51:42.328Z,11.57
2023-01-19T15:54:45.198Z,8.00
2023-01-19T15:57:48.679Z,10.35
2023-01-19T16:00:58.028Z,8.50
2023-01-19T16:04:07.961Z,9.98
2023-01-19T16:07:10.435Z,7.47
2023-01-19T16:10:16.869Z,6.67
2023-01-19T16:13:19.199Z,7.30
2023-01-19T16:16:24.295Z,10.38
2023-01-19T16:19:26.638Z,12.52
2023-01-19T16:22:29.545Z,11.30
2023-01-19T16:25:32.002Z,8.27
2023-01-19T16:28:36.432Z,7.68
2023-01-19T16:31:40.962Z,9.73
2023-01-19T16:34:43.787Z,12.63
2023-01-19T16:37:50.440Z,7.62
2023-01-19T16:40:53.216Z,10.00
2023-01-19T16:43:57.797Z,9.32
2023-01-19T16:47:00.624Z,12.45
2023-01-19T16:50:03.203Z,11.93
2023-01-19T16:53:07.185Z,10.23
2023-01-19T16:56:12.709Z,12.10
2023-01-19T16:59:17.193Z,13.57
2023-01-19T17:02:19.679Z,12.95
2023-01-19T17:05:22.743Z,12.02
2023-01-19T17:08:25.171Z,11.80
2023-01-19T17:11:30.499Z,13.27
2023-01-19T17:14:33.472Z,20.02
2023-01-19T17:17:36.797Z,12.82
2023-01-19T17:20:39.229Z,13.02
2023-01-19T17:23:42.905Z,13.82
2023-01-19T17:26:48.628Z,12.30
2023-01-19T17:29:51.467Z,12.00
2023-01-19T17:32:54.010Z,13.35
2023-01-19T17:36:02.779Z,11.20
2023-01-19T17:39:08.312Z,11.48
2023-01-19T17:42:10.984Z,8.27
2023-01-19T17:45:13.548Z,10.50
2023-01-19T17:48:17.579Z,10.70
2023-01-19T17:51:20.214Z,12.35
2023-01-19T17:54:23.004Z,11.18
2023-01-19T17:57:25.416Z,12.13
2023-01-19T18:00:29.148Z,12.90
2023-01-19T18:03:31.847Z,10.45
2023-01-19T18:06:34.228Z,6.50
2023-01-19T18:09:36.976Z,11.05
2023-01-19T18:12:39.666Z,9.83
2023-01-19T18:15:42.352Z,10.65
2023-01-19T18:18:44.909Z,11.43
2023-01-19T18:21:48.450Z,11.70
2023-01-19T18:24:51.003Z,11.52
2023-01-19T18:27:53.595Z,11.27
2023-01-19T18:30:56.159Z,10.50
2023-01-19T18:33:59.030Z,10.30
2023-01-19T18:37:01.551Z,8.57
2023-01-19T18:40:04.790Z,7.60
2023-01-19T18:43:09.065Z,7.73
2023-01-19T18:46:12.122Z,10.60
2023-01-19T18:49:14.726Z,9.02
2023-01-19T18:52:17.393Z,13.18
2023-01-19T18:55:20.093Z,17.45
2023-01-19T18:58:23.306Z,9.80
2023-01-19T19:01:29.753Z,10.75
2023-01-19T19:04:34.293Z,10.65
2023-01-19T19:07:37.724Z,10.85
2023-01-19T19:10:41.859Z,12.95
2023-01-19T19:13:44.808Z,9.90
2023-01-19T19:16:47.644Z,11.23
2023-01-19T19:19:49.994Z,11.25
2023-01-19T19:22:52.733Z,9.90
2023-01-19T19:25:55.134Z,11.98
2023-01-19T19:28:57.850Z,11.23
2023-01-19T19:32:00.256Z,10.55
2023-01-19T19:35:03.209Z,10.88
2023-01-19T19:38:05.599Z,10.80
2023-01-19T19:41:10.367Z,11.63
2023-01-19T19:44:12.968Z,11.50
2023-01-19T19:47:15.854Z,7.75
2023-01-19T19:50:18.548Z,13.70
2023-01-19T19:53:22.486Z,11.12
2023-01-19T19:56:28.017Z,11.43
2023-01-19T19:59:30.673Z,12.90
2023-01-19T20:02:33.079Z,11.07
2023-01-19T20:05:36.156Z,11.00
2023-01-19T20:08:38.567Z,11.52
2023-01-19T20:11:42.863Z,11.23
2023-01-19T20:14:45.231Z,10.90
2023-01-19T20:17:47.882Z,9.77
2023-01-19T20:20:50.330Z,11.98
2023-01-19T20:23:54.324Z,10.18
2023-01-19T20:26:57.250Z,9.02
2023-01-19T20:30:00.536Z,10.93
2023-01-19T20:33:03.131Z,9.88
2023-01-19T20:36:06.326Z,10.40
2023-01-19T20:39:10.410Z,9.68
2023-01-19T20:42:15.672Z,10.73
2023-01-19T20:45:18.793Z,8.90
2023-01-19T20:48:21.455Z,10.18
2023-01-19T20:51:25.771Z,9.25
2023-01-19T20:54:30.505Z,9.75
2023-01-19T20:57:32.863Z,9.43
2023-01-19T21:00:35.708Z,8.10
2023-01-19T21:03:38.205Z,10.98
2023-01-19T21:06:41.665Z,11.00
2023-01-19T21:09:44.114Z,10.00
2023-01-19T21:12:46.831Z,10.05
2023-01-19T21:15:49.388Z,5.30
2023-01-19T21:18:52.794Z,10.27
2023-01-19T21:21:55.375Z,8.52
2023-01-19T21:24:58.075Z,11.12
2023-01-19T21:28:00.465Z,10.27
2023-01-19T21:31:14.128Z,11.67
2023-01-19T21:34:16.826Z,10.52
2023-01-19T21:37:19.454Z,8.30
2023-01-19T21:40:21.895Z,11.27
2023-01-19T21:43:26.502Z,11.23
2023-01-19T21:46:29.604Z,12.17
2023-01-19T21:49:32.414Z,13.15
2023-01-19T21:52:34.757Z,15.18
2023-01-19T21:55:38.556Z,13.15
2023-01-19T21:58:40.973Z,12.80
2023-01-19T22:01:45.553Z,12.67
2023-01-19T22:04:48.325Z,11.38
2023-01-19T22:08:00.286Z,12.25
2023-01-19T22:11:09.278Z,12.35
2023-01-19T22:14:11.702Z,11.65
2023-01-19T22:17:14.391Z,11.27
2023-01-19T22:20:17.198Z,10.80
2023-01-19T22:23:19.934Z,10.70
2023-01-19T22:26:23.299Z,11.38
2023-01-19T22:29:25.936Z,7.85
2023-01-19T22:32:28.405Z,10.23
2023-01-19T22:35:31.025Z,9.20
2023-01-19T22:38:33.358Z,10.23
2023-01-19T22:41:46.036Z,10.05
2023-01-19T22:44:48.386Z,11.90
2023-01-19T22:47:51.123Z,9.80
2023-01-19T22:50:56.338Z,6.85
2023-01-19T22:53:59.509Z,11.05
2023-01-19T22:57:03.067Z,10.65
2023-01-19T23:00:09.450Z,11.30
2023-01-19T23:03:11.947Z,11.30
2023-01-19T23:06:19.785Z,10.13
2023-01-19T23:09:22.159Z,9.77
2023-01-19T23:12:24.827Z,9.98
2023-01-19T23:15:27.210Z,11.48
2023-01-19T23:18:30.089Z,9.27
2023-01-19T23:21:32.687Z,10.05
2023-01-19T23:24:35.390Z,11.07
2023-01-19T23:27:38.058Z,9.98
2023-01-19T23:30:42.601Z,11.30
2023-01-19T23:33:56.146Z,9.50
2023-01-19T23:36:58.847Z,10.65
2023-01-19T23:40:01.150Z,10.35
2023-01-19T23:43:04.213Z,6.47
2023-01-19T23:46:08.890Z,9.70
2023-01-19T23:49:12.546Z,9.87
2023-01-19T23:52:14.932Z,9.50
2023-01-19T23:55:17.853Z,7.37
2023-01-19T23:58:20.177Z,7.07
